createdAt,value
2023-03-06T00:02:13.296Z,59.05
2023-03-06T00:05:34.935Z,58.93
2023-03-06T00:08:56.572Z,58.11
2023-03-06T00:12:18.172Z,58.09
2023-03-06T00:15:42.430Z,57.70
2023-03-06T00:19:04.014Z,58.21
2023-03-06T00:22:26.566Z,57.78
2023-03-06T00:25:48.154Z,58.17
2023-03-06T00:29:09.770Z,59.01
2023-03-06T00:32:31.429Z,58.83
2023-03-06T00:35:55.459Z,58.64
2023-03-06T00:39:19.877Z,58.00
2023-03-06T00:42:41.640Z,58.41
2023-03-06T00:46:03.858Z,57.51
2023-03-06T00:49:25.489Z,57.19
2023-03-06T00:52:47.154Z,57.03
2023-03-06T00:56:09.778Z,57.72
2023-03-06T00:59:33.832Z,56.78
2023-03-06T01:02:56.123Z,57.91
2023-03-06T01:06:17.725Z,57.26
2023-03-06T01:09:44.546Z,57.64
2023-03-06T01:13:09.892Z,57.71
2023-03-06T01:16:34.132Z,57.48
2023-03-06T01:19:55.751Z,57.44
2023-03-06T01:23:20.401Z,57.77
2023-03-06T01:26:44.317Z,56.76
2023-03-06T01:30:06.598Z,57.00
2023-03-06T01:33:28.181Z,56.47
2023-03-06T01:36:49.879Z,56.34
2023-03-06T01:40:12.829Z,56.48
2023-03-06T01:43:36.664Z,57.11
2023-03-06T01:47:02.371Z,55.95
2023-03-06T01:50:24.200Z,55.57
2023-03-06T01:53:46.871Z,56.60
2023-03-06T01:57:43.364Z,56.73
2023-03-06T02:01:08.190Z,56.68
2023-03-06T02:04:32.287Z,56.78
2023-03-06T02:07:57.504Z,56.86
2023-03-06T02:11:22.445Z,56.79
2023-03-06T02:14:44.682Z,57.48
2023-03-06T02:18:08.495Z,57.64
2023-03-06T02:21:35.624Z,57.71
2023-03-06T02:25:23.293Z,57.56
2023-03-06T02:28:47.316Z,57.18
2023-03-06T02:32:09.016Z,57.69
2023-03-06T02:35:33.178Z,57.51
2023-03-06T02:38:57.987Z,58.19
2023-03-06T02:42:31.406Z,56.86
2023-03-06T02:45:55.540Z,56.72
2023-03-06T02:49:19.402Z,57.24
2023-03-06T02:52:41.051Z,57.59
2023-03-06T02:56:05.394Z,56.54
2023-03-06T02:59:30.023Z,56.88
2023-03-06T03:02:54.311Z,57.35
2023-03-06T03:06:16.306Z,57.09
2023-03-06T03:09:37.897Z,56.88
2023-03-06T03:12:59.577Z,56.38
2023-03-06T03:16:23.327Z,56.84
2023-03-06T03:19:47.398Z,56.31
2023-03-06T03:23:11.400Z,55.92
2023-03-06T03:26:35.297Z,56.05
2023-03-06T03:30:00.231Z,55.61
2023-03-06T03:33:24.319Z,56.40
2023-03-06T03:36:48.122Z,54.56
2023-03-06T03:40:12.473Z,54.35
2023-03-06T03:43:34.247Z,55.07
2023-03-06T03:46:58.901Z,55.93
2023-03-06T03:50:22.801Z,55.21
2023-03-06T03:53:45.031Z,54.56
2023-03-06T03:57:06.701Z,54.37
2023-03-06T04:00:28.958Z,55.18
2023-03-06T04:03:53.270Z,56.46
2023-03-06T04:07:17.392Z,56.01
2023-03-06T04:10:41.155Z,56.61
2023-03-06T04:14:03.485Z,56.53
2023-03-06T04:17:25.712Z,55.69
2023-03-06T04:20:47.957Z,56.27
2023-03-06T04:24:09.579Z,56.68
2023-03-06T04:27:34.191Z,55.99
2023-03-06T04:30:55.785Z,55.45
2023-03-06T04:34:17.355Z,54.68
2023-03-06T04:37:38.946Z,56.01
2023-03-06T04:41:00.560Z,55.61
2023-03-06T04:44:24.798Z,56.26
2023-03-06T04:47:49.103Z,56.28
2023-03-06T04:51:15.463Z,56.93
2023-03-06T04:54:37.073Z,56.91
2023-03-06T04:57:59.055Z,58.32
2023-03-06T05:01:23.432Z,58.57
2023-03-06T05:04:47.272Z,58.89
2023-03-06T05:08:13.547Z,59.56
2023-03-06T05:11:35.094Z,60.14
2023-03-06T05:14:58.155Z,60.95
2023-03-06T05:18:20.613Z,60.94
2023-03-06T05:21:44.386Z,61.00
2023-03-06T05:25:06.897Z,61.36
2023-03-06T05:28:28.844Z,61.39
2023-03-06T05:31:50.490Z,61.33
2023-03-06T05:35:17.784Z,62.39
2023-03-06T05:38:39.347Z,62.52
2023-03-06T05:42:00.974Z,63.60
2023-03-06T05:45:22.583Z,63.33
2023-03-06T05:48:46.920Z,64.03
2023-03-06T05:52:09.497Z,64.17
2023-03-06T05:55:31.170Z,64.03
2023-03-06T05:58:52.693Z,64.27
2023-03-06T06:02:15.222Z,64.00
2023-03-06T06:05:39.777Z,64.52
2023-03-06T06:09:01.378Z,64.06
2023-03-06T06:12:23.356Z,64.10
2023-03-06T06:15:44.995Z,65.64
2023-03-06T06:19:07.089Z,65.33
2023-03-06T06:22:34.050Z,65.00
2023-03-06T06:26:00.146Z,65.84
2023-03-06T06:29:22.562Z,67.04
2023-03-06T06:32:46.471Z,66.37
2023-03-06T06:36:20.263Z,65.81
2023-03-06T06:39:44.095Z,66.68
2023-03-06T06:43:05.700Z,74.92
2023-03-06T06:47:10.769Z,72.00
2023-03-06T06:50:13.540Z,72.13
2023-03-06T06:53:37.818Z,70.61
2023-03-06T06:57:02.030Z,69.37
2023-03-06T07:00:24.381Z,68.71
2023-03-06T07:03:46.723Z,63.04
2023-03-06T07:07:08.291Z,63.52
2023-03-06T07:10:32.584Z,64.10
2023-03-06T07:13:56.761Z,64.75
2023-03-06T07:17:23.337Z,65.31
2023-03-06T07:20:47.170Z,65.52
2023-03-06T07:24:09.030Z,65.94
2023-03-06T07:27:30.646Z,65.96
2023-03-06T07:30:52.401Z,66.19
2023-03-06T07:34:15.476Z,66.30
2023-03-06T07:37:41.632Z,65.85
2023-03-06T07:41:05.688Z,66.27
2023-03-06T07:44:27.451Z,66.33
2023-03-06T07:47:53.265Z,66.50
2023-03-06T07:51:22.147Z,66.81
2023-03-06T07:54:46.129Z,67.61
2023-03-06T07:58:12.979Z,67.50
2023-03-06T08:01:36.456Z,67.70
2023-03-06T08:05:01.778Z,66.72
2023-03-06T08:08:25.606Z,66.21
2023-03-06T08:11:47.447Z,66.56
2023-03-06T08:15:13.329Z,73.51
2023-03-06T08:18:35.386Z,73.04
2023-03-06T08:21:59.147Z,71.54
2023-03-06T08:25:24.680Z,69.25
2023-03-06T08:28:47.256Z,70.30
2023-03-06T08:32:11.916Z,64.64
2023-03-06T08:35:33.555Z,63.87
2023-03-06T08:39:01.044Z,65.09
2023-03-06T08:42:24.972Z,65.07
2023-03-06T08:45:54.628Z,66.81
2023-03-06T08:49:20.849Z,66.84
2023-03-06T08:52:42.558Z,67.61
2023-03-06T08:56:09.453Z,67.19
2023-03-06T08:59:31.147Z,68.17
2023-03-06T09:02:55.224Z,65.58
2023-03-06T09:06:18.188Z,67.23
2023-03-06T09:09:42.723Z,66.08
2023-03-06T09:13:04.307Z,65.93
2023-03-06T09:16:28.249Z,66.56
2023-03-06T09:19:51.041Z,64.84
2023-03-06T09:23:12.638Z,64.26
2023-03-06T09:26:45.692Z,63.29
2023-03-06T09:30:11.733Z,62.13
2023-03-06T09:33:35.574Z,63.07
2023-03-06T09:37:01.547Z,61.19
2023-03-06T09:40:40.996Z,59.36
2023-03-06T09:44:08.762Z,56.32
2023-03-06T09:47:55.035Z,54.73
2023-03-06T09:51:19.942Z,53.81
2023-03-06T09:54:46.198Z,55.26
2023-03-06T09:58:27.938Z,54.89
2023-03-06T10:02:13.243Z,54.63
2023-03-06T10:05:55.243Z,66.49
2023-03-06T10:09:24.982Z,57.01
2023-03-06T10:12:55.868Z,67.78
2023-03-06T10:16:42.971Z,62.83
2023-03-06T10:20:26.231Z,63.24
2023-03-06T10:23:57.219Z,62.35
2023-03-06T10:27:34.064Z,53.61
2023-03-06T10:31:22.725Z,54.31
2023-03-06T10:34:45.568Z,56.06
2023-03-06T10:38:24.478Z,56.39
2023-03-06T10:41:47.208Z,57.75
2023-03-06T10:45:15.118Z,58.50
2023-03-06T10:48:42.275Z,58.06
2023-03-06T10:52:07.178Z,58.37
2023-03-06T10:55:31.514Z,59.13
2023-03-06T10:59:11.372Z,58.79
2023-03-06T11:02:37.282Z,58.66
2023-03-06T11:05:58.871Z,59.05
2023-03-06T11:09:25.674Z,59.23
2023-03-06T11:13:03.587Z,68.54
2023-03-06T11:16:32.553Z,69.25
2023-03-06T11:20:16.497Z,68.12
2023-03-06T11:23:47.366Z,65.84
2023-03-06T11:27:34.687Z,60.89
2023-03-06T11:31:15.388Z,59.48
2023-03-06T11:34:37.021Z,58.00
2023-03-06T11:38:13.169Z,57.90
2023-03-06T11:41:58.379Z,52.69
2023-03-06T11:45:38.196Z,56.39
2023-03-06T11:49:33.242Z,57.91
2023-03-06T11:52:59.950Z,55.99
2023-03-06T11:56:31.708Z,57.05
2023-03-06T12:00:17.174Z,49.94
2023-03-06T12:04:00.121Z,58.02
2023-03-06T12:07:25.748Z,56.39
2023-03-06T12:10:55.084Z,58.00
2023-03-06T12:14:31.798Z,57.64
2023-03-06T12:17:59.773Z,54.47
2023-03-06T12:21:31.053Z,57.96
2023-03-06T12:25:22.777Z,56.69
2023-03-06T12:29:21.957Z,57.55
2023-03-06T12:32:54.823Z,53.90
2023-03-06T12:36:34.717Z,58.43
2023-03-06T12:40:34.942Z,56.34
2023-03-06T12:44:08.380Z,49.19
2023-03-06T12:47:36.692Z,49.86
2023-03-06T12:50:59.160Z,50.84
2023-03-06T12:54:31.062Z,51.37
2023-03-06T12:57:53.964Z,51.46
2023-03-06T13:01:39.840Z,52.44
2023-03-06T13:05:32.101Z,51.86
2023-03-06T13:09:08.232Z,61.98
2023-03-06T13:12:49.871Z,62.13
2023-03-06T13:16:13.226Z,62.65
2023-03-06T13:19:37.670Z,57.99
2023-03-06T13:23:02.270Z,65.61
2023-03-06T13:26:26.870Z,62.11
2023-03-06T13:29:52.492Z,61.99
2023-03-06T13:33:31.479Z,62.56
2023-03-06T13:36:53.106Z,62.76
2023-03-06T13:40:15.432Z,62.56
2023-03-06T13:43:43.867Z,55.76
2023-03-06T13:47:25.123Z,56.30
2023-03-06T13:50:47.790Z,57.15
2023-03-06T13:54:45.455Z,58.02
2023-03-06T13:58:37.869Z,58.41
2023-03-06T14:01:59.400Z,58.53
2023-03-06T14:05:24.283Z,67.50
2023-03-06T14:08:45.927Z,62.39
2023-03-06T14:12:26.569Z,67.13
2023-03-06T14:15:51.229Z,65.07
2023-03-06T14:19:17.480Z,60.82
2023-03-06T14:22:41.191Z,61.10
2023-03-06T14:26:43.907Z,58.98
2023-03-06T14:30:11.730Z,59.97
2023-03-06T14:33:44.973Z,60.43
2023-03-06T14:37:21.990Z,60.85
2023-03-06T14:40:49.609Z,60.60
2023-03-06T14:44:22.957Z,62.18
2023-03-06T14:47:51.718Z,59.96
2023-03-06T14:51:21.066Z,63.71
2023-03-06T14:54:44.861Z,62.82
2023-03-06T14:58:19.999Z,64.39
2023-03-06T15:01:46.174Z,61.43
2023-03-06T15:05:25.577Z,65.84
2023-03-06T15:08:50.579Z,60.17
2023-03-06T15:12:21.345Z,65.21
2023-03-06T15:15:42.992Z,63.65
2023-03-06T15:19:18.917Z,63.67
2023-03-06T15:22:41.690Z,64.19
2023-03-06T15:26:23.727Z,64.22
2023-03-06T15:29:46.153Z,64.85
2023-03-06T15:33:19.300Z,59.09
2023-03-06T15:36:57.749Z,62.44
2023-03-06T15:40:23.722Z,58.84
2023-03-06T15:43:45.422Z,57.88
2023-03-06T15:47:11.443Z,59.57
2023-03-06T15:50:35.492Z,61.37
2023-03-06T15:54:09.924Z,62.24
2023-03-06T15:57:33.437Z,63.05
2023-03-06T16:00:57.484Z,71.62
2023-03-06T16:04:19.961Z,63.82
2023-03-06T16:07:41.609Z,62.76
2023-03-06T16:11:05.882Z,63.36
2023-03-06T16:14:27.846Z,63.47
2023-03-06T16:17:51.907Z,64.22
2023-03-06T16:21:15.967Z,64.46
2023-03-06T16:24:37.635Z,64.83
2023-03-06T16:27:59.597Z,65.01
2023-03-06T16:31:23.863Z,65.35
2023-03-06T16:34:45.447Z,65.59
2023-03-06T16:38:07.412Z,65.87
2023-03-06T16:41:29.000Z,66.15
2023-03-06T16:44:50.701Z,66.06
2023-03-06T16:48:16.794Z,66.51
2023-03-06T16:51:40.325Z,66.47
2023-03-06T16:55:04.420Z,66.41
2023-03-06T16:58:28.694Z,66.66
2023-03-06T17:01:52.547Z,67.18
2023-03-06T17:05:14.603Z,67.02
2023-03-06T17:08:38.599Z,67.02
2023-03-06T17:12:00.252Z,67.07
2023-03-06T17:15:21.944Z,67.38
2023-03-06T17:18:46.877Z,67.25
2023-03-06T17:22:12.928Z,67.77
2023-03-06T17:25:38.443Z,68.87
2023-03-06T17:29:07.026Z,69.02
2023-03-06T17:32:29.542Z,69.16
2023-03-06T17:35:57.703Z,69.35
2023-03-06T17:39:19.806Z,69.43
2023-03-06T17:42:43.727Z,69.54
2023-03-06T17:46:18.938Z,69.12
2023-03-06T17:49:43.075Z,69.18
2023-03-06T17:53:07.050Z,68.96
2023-03-06T17:56:28.702Z,68.75
2023-03-06T17:59:53.354Z,68.48
2023-03-06T18:03:14.966Z,68.83
2023-03-06T18:06:39.275Z,68.58
2023-03-06T18:10:00.830Z,68.70
2023-03-06T18:13:22.399Z,68.52
2023-03-06T18:16:46.701Z,68.35
2023-03-06T18:20:11.596Z,69.18
2023-03-06T18:23:33.397Z,68.54
2023-03-06T18:26:55.005Z,69.14
2023-03-06T18:30:16.929Z,68.68
2023-03-06T18:33:39.074Z,69.03
2023-03-06T18:37:00.616Z,71.96
2023-03-06T18:40:24.763Z,74.74
2023-03-06T18:43:51.798Z,74.46
2023-03-06T18:47:14.792Z,71.73
2023-03-06T18:50:36.336Z,71.02
2023-03-06T18:54:02.248Z,71.48
2023-03-06T18:57:23.880Z,71.31
2023-03-06T19:00:51.391Z,65.70
2023-03-06T19:04:13.073Z,67.08
2023-03-06T19:07:37.355Z,69.41
2023-03-06T19:11:03.578Z,69.56
2023-03-06T19:14:29.198Z,70.52
2023-03-06T19:17:51.479Z,70.80
2023-03-06T19:21:18.294Z,71.70
2023-03-06T19:24:42.174Z,70.82
2023-03-06T19:28:06.646Z,72.00
2023-03-06T19:31:28.856Z,72.36
2023-03-06T19:34:53.567Z,73.25
2023-03-06T19:38:15.634Z,73.24
2023-03-06T19:41:40.046Z,74.89
2023-03-06T19:45:04.546Z,74.13
2023-03-06T19:48:26.234Z,74.22
2023-03-06T19:51:48.141Z,74.53
2023-03-06T19:55:10.503Z,74.53
2023-03-06T19:58:34.499Z,74.38
2023-03-06T20:01:56.241Z,74.55
2023-03-06T20:05:18.032Z,75.41
2023-03-06T20:08:39.762Z,74.82
2023-03-06T20:12:01.593Z,74.90
2023-03-06T20:15:27.998Z,74.60
2023-03-06T20:18:49.634Z,75.10
2023-03-06T20:22:13.866Z,75.23
2023-03-06T20:25:36.479Z,74.88
2023-03-06T20:28:59.273Z,89.51
2023-03-06T20:32:20.978Z,83.68
2023-03-06T20:35:44.000Z,82.96
2023-03-06T20:39:09.024Z,81.07
2023-03-06T20:42:32.937Z,74.56
2023-03-06T20:46:00.027Z,75.89
2023-03-06T20:49:26.771Z,75.72
2023-03-06T20:52:48.908Z,70.21
2023-03-06T20:56:14.790Z,70.70
2023-03-06T20:59:36.341Z,71.81
2023-03-06T21:02:58.025Z,72.55
2023-03-06T21:06:23.338Z,72.94
2023-03-06T21:09:45.142Z,73.74
2023-03-06T21:13:06.703Z,73.48
2023-03-06T21:16:30.208Z,74.42
2023-03-06T21:19:52.818Z,74.28
2023-03-06T21:23:15.032Z,78.12
2023-03-06T21:26:39.478Z,81.32
2023-03-06T21:30:01.106Z,78.48
2023-03-06T21:33:24.944Z,76.87
2023-03-06T21:36:47.304Z,76.61
2023-03-06T21:40:12.647Z,76.95
2023-03-06T21:43:36.492Z,75.65
2023-03-06T21:46:58.113Z,76.09
2023-03-06T21:50:22.172Z,76.25
2023-03-06T21:53:45.167Z,70.50
2023-03-06T21:57:09.516Z,70.48
2023-03-06T22:00:33.150Z,71.11
2023-03-06T22:03:55.179Z,72.27
2023-03-06T22:07:16.944Z,73.52
2023-03-06T22:10:39.240Z,74.19
2023-03-06T22:14:03.114Z,79.01
2023-03-06T22:17:30.486Z,81.61
2023-03-06T22:20:55.034Z,79.83
2023-03-06T22:24:16.613Z,78.66
2023-03-06T22:27:38.425Z,71.81
2023-03-06T22:31:08.730Z,71.39
2023-03-06T22:34:32.652Z,72.38
2023-03-06T22:37:57.068Z,73.25
2023-03-06T22:41:20.103Z,74.06
2023-03-06T22:44:41.713Z,74.57
2023-03-06T22:48:11.149Z,74.93
2023-03-06T22:51:37.503Z,74.38
2023-03-06T22:55:02.558Z,74.55
2023-03-06T22:58:26.610Z,75.11
2023-03-06T23:01:48.279Z,74.60
2023-03-06T23:05:11.305Z,74.68
2023-03-06T23:08:32.870Z,75.15
2023-03-06T23:11:54.465Z,76.38
2023-03-06T23:15:16.068Z,76.45
2023-03-06T23:18:39.159Z,75.71
2023-03-06T23:22:00.696Z,75.59
2023-03-06T23:25:22.449Z,76.54
2023-03-06T23:28:44.017Z,77.42
2023-03-06T23:32:08.440Z,77.52
2023-03-06T23:35:30.054Z,77.06
2023-03-06T23:38:52.325Z,76.55
2023-03-06T23:42:13.944Z,77.18
2023-03-06T23:45:35.647Z,75.97
2023-03-06T23:48:57.204Z,76.06
2023-03-06T23:52:18.812Z,75.56
2023-03-06T23:55:42.023Z,76.27
2023-03-06T23:59:03.744Z,77.18
